CheckWX is a tool to help pilots better visualize weather data.  It is not intended as a substitute for an official pre-flight weather briefing.

12:23:31 UTC

KMGE TAF
Dobbins Air Reserve Base Airport
Marietta, Georgia, USA
TAF KMGE 270500Z 2705/2811 VRB06KT 9999 FEW040 BKN250 QNH3012INS BECMG 2714/2715 09007KT 9999 SCT040 SCT100 QNH3015INS BECMG 2721/2722 10006KT 9999 FEW060 SCT200 QNH3017INS TX33/2720Z TN21/2711Z

Jun-27@
05:00 UTC

Jun-27 @ 05:00 UTC

Jun-27@
14:00 UTC

Jun-27 @ 14:00 UTC

TAF KMGE 270500Z 2705/2811 VRB06KT 9999 FEW040 BKN250 QNH3012INS
Wind
  • Variable at 6 KTS
Cloud Levels
  • Few at 4,000' AGL
  • Broken at 25,000' AGL

Jun-27@
14:00 UTC

Jun-27 @ 14:00 UTC

Jun-27@
21:00 UTC

Jun-27 @ 21:00 UTC

BECMG 2714/2715 09007KT 9999 SCT040 SCT100 QNH3015INS

Becoming

Becoming Conditions expected by Thu, Jun 27, 2019 @ 15:00 UTC

Wind
  • 090° at 7 KTS
Cloud Levels
  • Scattered at 4,000' AGL
  • Scattered at 10,000' AGL

Jun-27@
21:00 UTC

Jun-27 @ 21:00 UTC

Jun-28@
11:00 UTC

Jun-28 @ 11:00 UTC

BECMG 2721/2722 10006KT 9999 FEW060 SCT200 QNH3017INS TX33/2720Z TN21/2711Z

Becoming

Becoming Conditions expected by Thu, Jun 27, 2019 @ 22:00 UTC

Wind
  • 100° at 6 KTS
Cloud Levels
  • Few at 6,000' AGL
  • Scattered at 20,000' AGL